Time;durP1;ratioP1;P1;durP2;ratioP2;P2;SDS_P1;SDS_P2;PMS_P1;PMS_P2;Temp;Humidity;BMP_temperature;BMP_pressure;BME280_temperature;BME280_humidity;BME280_pressure;Samples;Min_cycle;Max_cycle;Signal;HPM_P1;HPM_P2
2022/05/17 00:02:20;;;;;;;;;14.00;14.00;;;;;14.88;72.55;100302.69;5049895;28;8872;-64
2022/05/17 00:04:48;;;;;;;;;13.50;12.25;;;;;14.83;72.92;100299.56;5050287;28;8826;-64
2022/05/17 00:07:15;;;;;;;;;17.00;15.00;;;;;14.79;73.20;100299.00;5049459;28;8858;-64
2022/05/17 00:09:43;;;;;;;;;14.50;13.00;;;;;14.76;73.11;100298.44;5034418;28;8862;-64
2022/05/17 00:12:12;;;;;;;;;15.75;12.75;;;;;14.71;73.08;100301.53;5029712;28;8836;-63
2022/05/17 00:14:39;;;;;;;;;14.00;12.00;;;;;14.68;73.01;100301.84;5029445;28;8851;-64
2022/05/17 00:17:08;;;;;;;;;10.00;10.00;;;;;14.64;73.48;100303.09;5030316;28;8854;-64
2022/05/17 00:19:37;;;;;;;;;15.75;13.75;;;;;14.58;73.27;100294.75;5029931;28;8836;-64
2022/05/17 00:22:05;;;;;;;;;15.50;13.00;;;;;14.54;73.29;100298.69;5029954;28;8874;-69
2022/05/17 00:24:32;;;;;;;;;15.75;14.50;;;;;14.48;73.40;100297.41;5029354;28;9832;-66
2022/05/17 00:27:00;;;;;;;;;12.00;12.00;;;;;14.46;73.54;100296.72;5029737;28;8824;-64
2022/05/17 00:29:28;;;;;;;;;13.00;12.00;;;;;14.43;73.38;100301.50;5046445;28;8877;-65
2022/05/17 00:31:56;;;;;;;;;7.00;6.00;;;;;14.40;73.91;100291.03;5049497;28;8838;-64
2022/05/17 00:34:24;;;;;;;;;15.75;12.75;;;;;14.35;73.90;100298.66;5049605;28;8830;-63
2022/05/17 00:36:52;;;;;;;;;16.50;14.25;;;;;14.31;73.42;100294.53;5049321;28;8862;-63
2022/05/17 00:39:20;;;;;;;;;12.00;12.00;;;;;14.26;73.26;100305.69;5049253;28;8939;-63
2022/05/17 00:41:48;;;;;;;;;15.50;14.00;;;;;14.22;74.05;100295.38;5049752;28;8834;-63
2022/05/17 00:47:01;;;;;;;;;21.75;16.00;;;;;14.16;73.76;100294.06;5049332;28;8838;-63
2022/05/17 00:49:28;;;;;;;;;10.25;8.50;;;;;14.13;73.92;100288.94;5049506;28;8842;-64
2022/05/17 00:51:56;;;;;;;;;14.00;12.00;;;;;14.11;74.42;100292.78;5050477;28;8862;-68
2022/05/17 00:54:24;;;;;;;;;18.00;11.50;;;;;14.08;74.12;100291.22;5053480;28;9875;-64
2022/05/17 00:56:52;;;;;;;;;15.75;15.25;;;;;14.05;74.29;100290.63;5053019;28;8842;-64
2022/05/17 00:59:20;;;;;;;;;11.50;11.50;;;;;14.03;73.92;100289.94;5037301;28;8828;-64
2022/05/17 01:01:47;;;;;;;;;12.75;12.25;;;;;14.01;74.11;100286.53;5033491;28;8970;-63
2022/05/17 01:04:15;;;;;;;;;12.75;10.50;;;;;13.98;74.04;100284.94;5033037;28;8840;-64
2022/05/17 01:06:43;;;;;;;;;11.50;11.50;;;;;13.97;73.67;100290.47;5032728;28;8847;-64
2022/05/17 01:09:12;;;;;;;;;12.00;10.00;;;;;13.95;74.02;100287.06;5032970;28;8833;-64
2022/05/17 01:11:40;;;;;;;;;9.00;7.00;;;;;13.94;73.80;100283.53;5033011;28;8832;-64
2022/05/17 01:16:53;;;;;;;;;13.75;11.50;;;;;13.87;73.96;100284.19;5033075;28;9554;-64
2022/05/17 01:19:21;;;;;;;;;13.50;13.00;;;;;13.84;74.45;100287.16;5032915;28;8853;-64
2022/05/17 01:21:49;;;;;;;;;17.25;16.25;;;;;13.80;74.61;100283.03;5032616;28;9842;-63
2022/05/17 01:24:17;;;;;;;;;12.00;9.50;;;;;13.77;74.07;100277.97;5032224;28;8853;-64
2022/05/17 01:26:44;;;;;;;;;13.00;12.00;;;;;13.75;74.03;100279.94;5032574;28;8863;-63
2022/05/17 01:29:13;;;;;;;;;14.75;12.50;;;;;13.73;74.36;100287.25;5046275;28;8852;-64
2022/05/17 01:31:41;;;;;;;;;17.50;15.50;;;;;13.71;74.30;100287.38;5033634;28;8910;-63
2022/05/17 01:34:10;;;;;;;;;12.00;12.00;;;;;13.71;74.34;100294.56;5032742;28;8895;-64
2022/05/17 01:36:38;;;;;;;;;13.00;12.50;;;;;13.69;74.31;100289.34;5032346;28;8833;-65
2022/05/17 01:39:08;;;;;;;;;11.00;9.50;;;;;13.66;74.15;100292.28;5032751;28;8844;-63
2022/05/17 01:41:36;;;;;;;;;12.50;12.00;;;;;13.64;74.43;100290.72;5032454;28;8844;-63
2022/05/17 01:44:03;;;;;;;;;10.50;9.25;;;;;13.61;74.40;100286.50;5032400;28;8930;-64
2022/05/17 01:46:31;;;;;;;;;8.50;7.00;;;;;13.60;74.49;100284.78;5032236;28;8824;-64
2022/05/17 01:48:59;;;;;;;;;15.00;14.00;;;;;13.61;74.12;100291.00;5032663;28;8860;-64
2022/05/17 01:51:27;;;;;;;;;12.25;12.00;;;;;13.59;74.74;100290.28;5032290;28;8848;-65
2022/05/17 01:53:55;;;;;;;;;10.50;10.50;;;;;13.60;74.67;100284.78;5032883;28;8866;-64
2022/05/17 01:56:22;;;;;;;;;14.50;13.50;;;;;13.61;74.19;100297.22;5031895;28;8844;-65
2022/05/17 01:58:50;;;;;;;;;9.00;7.50;;;;;13.61;74.62;100291.00;5032517;28;8840;-64
2022/05/17 02:01:18;;;;;;;;;10.50;9.00;;;;;13.63;73.76;100281.00;5032020;28;8857;-64
2022/05/17 02:03:46;;;;;;;;;14.25;12.50;;;;;13.64;74.16;100282.69;5031634;28;8889;-64
2022/05/17 02:06:13;;;;;;;;;11.50;11.50;;;;;13.63;73.94;100284.53;5032029;28;8866;-68
2022/05/17 02:08:41;;;;;;;;;14.00;14.00;;;;;13.63;74.36;100281.84;5031683;28;8864;-67
2022/05/17 02:11:09;;;;;;;;;13.00;12.00;;;;;13.63;74.15;100286.34;5032079;28;8867;-64
2022/05/17 02:13:38;;;;;;;;;12.00;11.25;;;;;13.61;73.77;100289.19;5031874;28;8914;-65
2022/05/17 02:16:05;;;;;;;;;10.00;9.25;;;;;13.64;73.68;100280.00;5031958;28;8829;-64
2022/05/17 02:18:35;;;;;;;;;12.00;9.75;;;;;13.66;73.75;100283.41;5031926;28;9652;-64
2022/05/17 02:21:02;;;;;;;;;10.00;10.00;;;;;13.69;73.84;100285.81;5051404;28;8859;-64
2022/05/17 02:23:30;;;;;;;;;14.50;12.00;;;;;13.70;73.41;100284.84;5051307;28;8968;-64
2022/05/17 02:25:58;;;;;;;;;9.75;9.50;;;;;13.71;73.74;100286.53;5051749;28;8853;-64
2022/05/17 02:28:26;;;;;;;;;17.00;12.25;;;;;13.70;73.95;100287.50;5051136;28;8842;-64
2022/05/17 02:30:54;;;;;;;;;10.50;10.00;;;;;13.68;73.29;100282.28;5051715;28;8846;-64
2022/05/17 02:33:21;;;;;;;;;14.50;12.75;;;;;13.68;73.50;100281.44;5051481;28;8981;-64
2022/05/17 02:35:49;;;;;;;;;10.00;10.00;;;;;13.70;73.42;100282.16;5050953;28;8852;-64
2022/05/17 02:38:17;;;;;;;;;12.00;11.50;;;;;13.69;73.59;100283.16;5051319;28;8826;-64
2022/05/17 02:40:45;;;;;;;;;12.25;11.75;;;;;13.69;73.66;100289.34;5051358;28;8842;-64
2022/05/17 02:43:12;;;;;;;;;11.75;11.00;;;;;13.68;73.94;100286.81;5051702;28;8846;-64
2022/05/17 02:45:40;;;;;;;;;12.25;10.00;;;;;13.68;73.59;100289.47;5051662;28;8822;-65
2022/05/17 02:48:09;;;;;;;;;13.00;13.00;;;;;13.65;73.61;100287.91;5051454;28;8870;-64
2022/05/17 02:50:36;;;;;;;;;12.00;11.50;;;;;13.64;73.91;100293.38;5033521;28;8856;-64
2022/05/17 02:53:04;;;;;;;;;6.50;6.25;;;;;13.61;73.80;100286.50;5030630;28;8862;-64
2022/05/17 02:55:32;;;;;;;;;7.50;6.25;;;;;13.58;73.47;100288.59;5031147;28;8849;-64
2022/05/17 02:58:00;;;;;;;;;10.75;9.50;;;;;13.54;74.14;100287.16;5031386;28;8926;-64
2022/05/17 03:00:28;;;;;;;;;16.50;12.25;;;;;13.51;74.17;100303.47;5031135;28;8841;-64
2022/05/17 03:02:57;;;;;;;;;12.00;10.00;;;;;13.47;74.05;100299.34;5031099;28;8854;-64
2022/05/17 03:05:24;;;;;;;;;12.75;12.50;;;;;13.45;74.47;100306.66;5030651;28;8862;-64
2022/05/17 03:07:54;;;;;;;;;12.00;10.00;;;;;13.42;74.36;100301.56;5031052;28;8860;-64
2022/05/17 03:10:21;;;;;;;;;15.00;11.50;;;;;13.40;74.08;100300.84;5030938;28;8860;-64
2022/05/17 03:12:49;;;;;;;;;9.50;8.50;;;;;13.37;74.18;100304.63;5030499;28;8970;-64
2022/05/17 03:15:16;;;;;;;;;9.00;9.00;;;;;13.37;74.29;100309.16;5029980;28;8925;-64
2022/05/17 03:17:45;;;;;;;;;12.00;11.75;;;;;13.37;74.31;100304.63;5030793;28;8867;-64
2022/05/17 03:20:13;;;;;;;;;7.00;7.00;;;;;13.39;73.92;100309.88;5046259;28;8830;-64
2022/05/17 03:22:41;;;;;;;;;12.25;11.75;;;;;13.36;73.92;100310.97;5050724;28;8834;-64
2022/05/17 03:25:08;;;;;;;;;16.75;13.00;;;;;13.35;74.44;100316.47;5050229;28;9500;-64
2022/05/17 03:27:56;;;;;;;;;8.00;7.00;;;;;13.32;74.04;100317.56;5049991;28;8917;-64
2022/05/17 03:30:24;;;;;;;;;12.75;12.25;;;;;13.30;74.58;100313.31;5050970;28;9009;-64
2022/05/17 03:32:52;;;;;;;;;11.00;9.00;;;;;13.28;74.58;100326.81;5049809;28;8844;-64
2022/05/17 03:35:20;;;;;;;;;13.75;11.50;;;;;13.26;74.35;100323.44;5050496;28;8840;-63
2022/05/17 03:37:48;;;;;;;;;12.75;10.00;;;;;13.25;73.97;100320.88;5050321;28;9512;-64
2022/05/17 03:40:16;;;;;;;;;12.25;12.00;;;;;13.26;74.41;100322.56;5049986;28;9801;-63
2022/05/17 03:42:44;;;;;;;;;6.50;6.50;;;;;13.25;74.10;100323.56;5050256;28;8974;-64
2022/05/17 03:45:12;;;;;;;;;12.25;11.00;;;;;13.24;74.54;100321.88;5049921;28;8846;-64
2022/05/17 03:47:39;;;;;;;;;12.00;10.00;;;;;13.21;74.24;100327.47;5050252;28;8854;-64
2022/05/17 03:50:07;;;;;;;;;11.50;9.50;;;;;13.19;74.59;100332.09;5035002;28;8845;-63
2022/05/17 03:52:35;;;;;;;;;10.00;9.00;;;;;13.16;74.24;100333.22;5029667;28;8841;-63
2022/05/17 03:55:03;;;;;;;;;12.00;12.00;;;;;13.15;74.65;100330.66;5029908;28;8837;-64
2022/05/17 03:57:31;;;;;;;;;6.75;6.25;;;;;13.16;74.53;100337.72;5029499;28;8979;-64
2022/05/17 03:59:59;;;;;;;;;10.75;9.00;;;;;13.17;74.10;100337.59;5029870;28;8922;-64
2022/05/17 04:02:27;;;;;;;;;10.00;10.00;;;;;13.21;74.53;100340.84;5030317;28;8845;-63
2022/05/17 04:04:54;;;;;;;;;9.25;8.00;;;;;13.25;74.19;100342.28;5029431;28;8978;-64
2022/05/17 04:07:22;;;;;;;;;10.50;9.00;;;;;13.30;73.93;100345.44;5030194;28;8963;-63
2022/05/17 04:09:53;;;;;;;;;10.00;10.00;;;;;13.36;74.19;100345.75;5029594;28;8856;-64
2022/05/17 04:12:20;;;;;;;;;9.25;8.25;;;;;13.39;73.48;100344.63;5029414;28;8867;-64
2022/05/17 04:14:48;;;;;;;;;12.75;12.25;;;;;13.37;73.64;100336.72;5029479;28;8964;-64
2022/05/17 04:17:16;;;;;;;;;12.25;12.00;;;;;13.35;74.10;100333.34;5028998;28;8979;-64
2022/05/17 04:19:44;;;;;;;;;15.75;12.75;;;;;13.34;73.66;100334.34;5043436;28;8814;-65
2022/05/17 04:22:11;;;;;;;;;12.25;11.00;;;;;13.31;73.63;100333.75;5050043;28;8854;-64
2022/05/17 04:24:41;;;;;;;;;10.00;7.00;;;;;13.28;73.71;100344.72;5049460;28;8844;-64
2022/05/17 04:27:09;;;;;;;;;9.50;8.75;;;;;13.25;73.82;100340.47;5053189;28;8858;-64
2022/05/17 04:29:38;;;;;;;;;11.00;10.00;;;;;13.25;74.30;100344.94;5053137;28;8984;-64
2022/05/17 04:32:05;;;;;;;;;12.00;10.75;;;;;13.27;73.71;100351.00;5053813;28;8866;-64
2022/05/17 04:34:33;;;;;;;;;9.50;8.75;;;;;13.30;73.61;100350.78;5053669;28;8846;-64
2022/05/17 04:37:01;;;;;;;;;11.00;11.00;;;;;13.34;73.77;100345.03;5052884;28;8838;-64
2022/05/17 04:39:30;;;;;;;;;8.50;8.50;;;;;13.45;73.48;100333.44;5053329;28;8830;-64
2022/05/17 04:41:58;;;;;;;;;9.50;8.00;;;;;13.54;73.57;100343.34;5053156;28;8967;-64
2022/05/17 04:44:26;;;;;;;;;12.75;12.00;;;;;13.59;73.63;100336.59;5053241;28;8853;-64
2022/05/17 04:46:54;;;;;;;;;13.50;11.00;;;;;13.62;73.25;100343.53;5053966;28;9527;-64
2022/05/17 04:49:22;;;;;;;;;15.00;11.50;;;;;13.63;73.24;100350.56;5041846;28;8832;-64
2022/05/17 04:51:50;;;;;;;;;10.00;9.75;;;;;13.64;73.25;100354.94;5033440;28;8914;-64
2022/05/17 04:54:18;;;;;;;;;10.50;10.25;;;;;13.64;73.47;100353.13;5033309;28;8878;-63
2022/05/17 04:56:45;;;;;;;;;13.50;11.50;;;;;13.67;73.01;100341.31;5033050;28;8913;-63
2022/05/17 04:59:13;;;;;;;;;15.25;12.75;;;;;13.71;73.35;100350.75;5033401;28;8852;-64
2022/05/17 05:01:42;;;;;;;;;11.00;11.00;;;;;13.75;73.01;100352.22;5032917;28;8852;-64
2022/05/17 05:04:10;;;;;;;;;15.25;14.50;;;;;13.82;72.79;100356.06;5032724;28;8860;-64
2022/05/17 05:06:37;;;;;;;;;9.00;9.00;;;;;13.86;73.11;100352.97;5033123;28;8867;-64
2022/05/17 05:09:05;;;;;;;;;10.00;9.75;;;;;13.93;72.57;100354.16;5031912;28;8832;-64
2022/05/17 05:11:34;;;;;;;;;10.50;10.50;;;;;14.00;72.29;100352.63;5033170;28;8987;-64
2022/05/17 05:14:02;;;;;;;;;13.00;11.25;;;;;14.13;72.12;100341.69;5032689;28;8848;-64
2022/05/17 05:16:29;;;;;;;;;13.00;13.00;;;;;14.30;71.54;100349.13;5032356;28;8987;-63
2022/05/17 05:18:57;;;;;;;;;15.00;12.00;;;;;14.47;71.47;100359.19;5039547;28;8846;-65
2022/05/17 05:21:25;;;;;;;;;14.00;13.50;;;;;14.58;71.11;100353.72;5052323;28;8874;-65
2022/05/17 05:23:53;;;;;;;;;13.75;12.50;;;;;14.63;70.68;100357.69;5052101;28;8846;-64
2022/05/17 05:26:21;;;;;;;;;12.75;12.00;;;;;14.69;71.17;100357.13;5052770;28;8862;-64
2022/05/17 05:28:49;;;;;;;;;12.75;11.25;;;;;14.75;70.81;100366.47;5051976;28;8854;-64
2022/05/17 05:31:17;;;;;;;;;9.50;9.00;;;;;14.75;71.22;100361.97;5052361;28;8834;-64
2022/05/17 05:33:45;;;;;;;;;12.50;10.00;;;;;14.78;71.17;100359.00;5051371;28;8838;-64
2022/05/17 05:36:12;;;;;;;;;14.50;12.50;;;;;14.84;70.94;100365.63;5050727;28;8864;-64
2022/05/17 05:38:41;;;;;;;;;11.00;10.50;;;;;14.89;70.74;100364.25;5049900;28;8980;-68
2022/05/17 05:41:08;;;;;;;;;13.50;10.00;;;;;14.95;70.66;100357.47;5050320;28;8872;-63
2022/05/17 05:43:36;;;;;;;;;14.00;14.00;;;;;15.04;70.60;100362.84;5050521;28;8834;-68
2022/05/17 05:46:04;;;;;;;;;11.00;10.25;;;;;15.16;70.37;100364.41;5050557;28;8842;-63
2022/05/17 05:48:34;;;;;;;;;14.50;12.25;;;;;15.29;70.58;100359.59;5039052;28;8840;-64
2022/05/17 05:51:02;;;;;;;;;16.75;15.00;;;;;15.42;69.80;100357.53;5031537;28;9538;-64
2022/05/17 05:53:29;;;;;;;;;14.00;13.75;;;;;15.57;69.55;100357.91;5031634;28;9620;-63
2022/05/17 05:56:01;;;;;;;;;20.00;17.00;;;;;15.76;69.50;100363.25;5031323;28;9736;-64
2022/05/17 05:58:29;;;;;;;;;14.50;12.00;;;;;15.94;68.74;100353.47;5031493;28;8861;-63
2022/05/17 06:00:57;;;;;;;;;12.25;12.25;;;;;16.09;68.71;100344.75;5030319;28;8840;-64
2022/05/17 06:03:25;;;;;;;;;17.00;15.50;;;;;16.18;68.56;100358.16;5030252;28;9947;-64
2022/05/17 06:05:53;;;;;;;;;17.00;16.00;;;;;16.26;68.79;100349.38;5030524;28;8933;-64
2022/05/17 06:08:21;;;;;;;;;16.00;15.00;;;;;16.34;68.32;100350.31;5030499;28;8868;-63
2022/05/17 06:10:49;;;;;;;;;16.50;16.00;;;;;16.41;67.95;100346.06;5030489;28;8856;-64
2022/05/17 06:13:20;;;;;;;;;15.25;13.00;;;;;16.48;68.49;100349.84;5030571;28;8840;-64
2022/05/17 06:15:48;;;;;;;;;15.00;12.50;;;;;16.52;68.30;100355.78;5031135;28;8844;-64
2022/05/17 06:18:16;;;;;;;;;17.50;15.00;;;;;16.59;67.82;100356.88;5038110;28;8873;-63
2022/05/17 06:20:44;;;;;;;;;14.00;13.50;;;;;16.65;68.40;100362.50;5049475;28;9844;-64
2022/05/17 06:23:12;;;;;;;;;16.75;14.00;;;;;16.71;68.15;100361.91;5049797;28;8842;-64
2022/05/17 06:25:41;;;;;;;;;14.00;12.00;;;;;16.79;68.37;100361.16;5049696;28;8842;-64
2022/05/17 06:28:08;;;;;;;;;17.00;15.50;;;;;16.87;68.24;100370.16;5048634;28;8980;-63
2022/05/17 06:30:36;;;;;;;;;20.00;15.25;;;;;16.95;68.19;100372.94;5049101;28;8853;-64
2022/05/17 06:33:04;;;;;;;;;16.75;14.75;;;;;17.04;67.49;100369.34;5050092;28;8834;-64
2022/05/17 06:35:32;;;;;;;;;19.00;16.00;;;;;17.13;67.73;100373.81;5050292;28;8834;-63
2022/05/17 06:37:59;;;;;;;;;16.50;16.00;;;;;17.20;67.67;100366.81;5050169;28;8850;-63
2022/05/17 06:40:27;;;;;;;;;15.25;14.00;;;;;17.31;67.65;100371.13;5049338;28;8872;-64
2022/05/17 06:42:55;;;;;;;;;10.50;10.00;;;;;17.42;67.60;100371.78;5049791;28;8838;-64
2022/05/17 06:45:23;;;;;;;;;13.75;12.00;;;;;17.51;67.14;100370.84;5049235;28;8873;-64
2022/05/17 06:47:51;;;;;;;;;9.25;9.00;;;;;17.64;67.13;100376.69;5044443;28;8852;-64
2022/05/17 06:50:19;;;;;;;;;16.00;13.25;;;;;17.75;66.57;100365.63;5028878;28;8866;-64
2022/05/17 06:52:46;;;;;;;;;19.50;18.00;;;;;17.88;66.71;100365.22;5028242;28;8895;-64
2022/05/17 06:55:14;;;;;;;;;10.50;8.00;;;;;17.97;66.69;100361.56;5029381;28;8974;-63
2022/05/17 06:57:43;;;;;;;;;18.00;15.75;;;;;18.05;66.25;100370.56;5028830;28;8828;-64
2022/05/17 07:00:11;;;;;;;;;15.40;13.00;;;;;18.12;65.90;100374.31;5029242;28;8999;-64
2022/05/17 07:02:39;;;;;;;;;15.75;15.00;;;;;18.19;66.27;100372.66;5029170;28;8860;-64
2022/05/17 07:05:08;;;;;;;;;16.00;15.50;;;;;18.26;66.33;100372.88;5029249;28;8938;-64
2022/05/17 07:07:39;;;;;;;;;13.00;12.00;;;;;18.33;66.01;100369.41;5029204;28;8975;-63
2022/05/17 07:13:09;;;;;;;;;16.80;13.80;;;;;18.50;65.92;100373.88;4981409;28;8880;-64
2022/05/17 07:15:38;;;;;;;;;18.80;18.80;;;;;18.59;65.82;100372.06;5028160;28;8860;-67
2022/05/17 07:18:05;;;;;;;;;15.80;15.60;;;;;18.67;65.58;100372.94;5034531;28;8834;-64
2022/05/17 07:20:33;;;;;;;;;23.80;20.00;;;;;18.80;65.38;100376.03;5048754;28;8850;-64
2022/05/17 07:23:03;;;;;;;;;15.00;14.80;;;;;18.93;65.40;100379.09;5044489;28;9008;-64
2022/05/17 07:25:34;;;;;;;;;20.40;18.00;;;;;19.03;65.03;100376.28;5047654;28;8866;-64
2022/05/17 07:28:02;;;;;;;;;21.80;19.60;;;;;19.15;65.47;100367.69;5048943;28;8856;-66
2022/05/17 07:30:30;;;;;;;;;21.00;19.60;;;;;19.32;65.02;100376.66;5049239;28;8846;-64
2022/05/17 07:32:57;;;;;;;;;17.40;16.20;;;;;19.46;64.90;100376.00;5049146;28;8928;-63
2022/05/17 07:35:25;;;;;;;;;9.60;8.20;;;;;19.60;64.43;100376.19;5049327;28;8985;-64
2022/05/17 07:37:53;;;;;;;;;10.80;8.80;;;;;19.74;63.95;100383.63;5049054;28;9512;-64
2022/05/17 07:40:22;;;;;;;;;8.60;8.00;;;;;19.82;63.90;100375.53;5048517;28;8888;-64
2022/05/17 07:42:50;;;;;;;;;9.60;9.60;;;;;19.89;64.37;100381.91;5048466;28;8868;-69
2022/05/17 07:45:18;;;;;;;;;7.60;6.20;;;;;19.92;64.44;100378.88;5049091;28;8966;-63
2022/05/17 07:47:46;;;;;;;;;9.60;7.80;;;;;20.02;63.77;100376.00;5048755;28;8936;-67
2022/05/17 07:50:14;;;;;;;;;7.00;5.00;;;;;20.12;63.58;100376.69;5047818;28;8846;-64
2022/05/17 07:52:42;;;;;;;;;7.20;5.80;;;;;20.21;63.57;100379.22;5037108;28;9501;-64
2022/05/17 07:55:10;;;;;;;;;8.80;8.00;;;;;20.30;63.37;100375.47;5027785;28;8933;-64
2022/05/17 07:57:38;;;;;;;;;8.80;8.00;;;;;20.43;63.10;100375.78;5027498;28;8867;-64
2022/05/17 08:00:06;;;;;;;;;7.20;6.20;;;;;20.58;62.88;100378.56;5027530;28;8858;-65
2022/05/17 08:02:34;;;;;;;;;5.60;5.60;;;;;20.78;62.64;100388.81;5026421;28;8850;-65
2022/05/17 08:05:02;;;;;;;;;8.60;7.40;;;;;21.00;62.04;100377.22;5027615;28;8829;-64
2022/05/17 08:07:30;;;;;;;;;6.60;5.80;;;;;21.26;61.53;100385.88;5030215;28;8838;-63
2022/05/17 08:10:00;;;;;;;;;4.20;3.20;;;;;21.41;61.54;100378.66;5026234;28;8834;-64
2022/05/17 08:12:28;;;;;;;;;5.00;4.00;;;;;21.47;61.00;100378.78;5023039;28;8834;-64
2022/05/17 08:14:55;;;;;;;;;1.60;1.60;;;;;21.50;61.44;100377.56;5041938;28;8924;-64
2022/05/17 08:17:23;;;;;;;;;5.00;5.00;;;;;21.52;61.09;100381.81;5042335;28;8846;-64
2022/05/17 08:19:51;;;;;;;;;5.20;5.20;;;;;21.54;61.04;100381.59;5042448;28;8866;-64
2022/05/17 08:22:19;;;;;;;;;1.00;0.00;;;;;21.58;61.21;100381.09;5041987;28;8866;-64
2022/05/17 08:27:39;;;;;;;;;4.20;4.00;;;;;21.49;61.54;100390.28;5023255;28;8874;-64
2022/05/17 08:30:15;;;;;;;;;7.20;5.60;;;;;21.36;62.02;100391.91;5023035;28;9144;-64
2022/05/17 08:35:28;;;;;;;;;6.80;6.80;;;;;21.14;62.29;100395.44;5024003;28;8856;-64
2022/05/17 08:37:57;;;;;;;;;5.00;5.00;;;;;21.06;62.66;100401.75;5028332;28;8984;-65
2022/05/17 08:40:24;;;;;;;;;5.20;4.40;;;;;20.99;62.66;100398.06;5028173;28;8856;-64
2022/05/17 08:42:52;;;;;;;;;5.20;5.00;;;;;20.96;63.08;100408.41;5028146;28;8918;-64
2022/05/17 08:45:23;;;;;;;;;4.60;4.60;;;;;20.92;63.47;100410.63;5028474;28;8844;-64
2022/05/17 08:47:51;;;;;;;;;5.00;5.00;;;;;20.95;62.91;100414.84;5028224;28;8913;-64
2022/05/17 08:50:28;;;;;;;;;8.20;7.00;;;;;20.99;63.04;100416.16;5027391;28;8840;-64
2022/05/17 08:52:56;;;;;;;;;9.00;8.40;;;;;21.03;62.80;100406.69;5038809;28;8862;-64
2022/05/17 08:55:24;;;;;;;;;7.00;7.00;;;;;21.10;62.58;100415.78;5046732;28;8924;-64
2022/05/17 08:57:52;;;;;;;;;7.60;6.20;;;;;21.19;62.49;100410.13;5043868;28;8951;-64
2022/05/17 09:00:19;;;;;;;;;8.40;7.40;;;;;21.28;62.02;100410.94;5027585;28;9478;-64
2022/05/17 09:02:47;;;;;;;;;10.40;8.00;;;;;21.38;62.22;100406.09;5028447;28;10002;-66
2022/05/17 09:05:16;;;;;;;;;9.40;9.40;;;;;21.48;61.56;100417.59;5028829;28;8958;-65
2022/05/17 09:07:44;;;;;;;;;7.60;7.60;;;;;21.63;61.79;100410.34;5028253;28;8840;-64
2022/05/17 09:10:12;;;;;;;;;5.60;5.00;;;;;21.84;61.05;100418.66;5027952;28;8848;-64
2022/05/17 09:12:40;;;;;;;;;9.20;9.20;;;;;21.98;60.65;100420.59;5027196;28;9750;-64
2022/05/17 09:15:08;;;;;;;;;7.60;7.60;;;;;22.09;60.38;100422.88;5030501;28;8824;-65
2022/05/17 09:17:35;;;;;;;;;6.80;6.80;;;;;22.12;60.77;100426.06;5031391;28;8993;-64
2022/05/17 09:20:04;;;;;;;;;6.20;6.20;;;;;22.17;60.39;100417.38;5030149;28;8962;-64
2022/05/17 09:22:31;;;;;;;;;6.00;4.60;;;;;22.21;60.39;100421.38;5031664;28;8849;-64
2022/05/17 09:24:59;;;;;;;;;5.20;5.20;;;;;22.22;60.68;100423.94;5049285;28;8866;-64
2022/05/17 09:27:28;;;;;;;;;7.00;6.00;;;;;22.21;60.77;100416.81;5040025;28;8872;-64
2022/05/17 09:29:56;;;;;;;;;9.40;8.40;;;;;22.24;60.64;100419.16;5048773;28;8945;-64
2022/05/17 09:32:24;;;;;;;;;5.80;5.40;;;;;22.23;60.60;100419.34;5050237;28;8923;-65
2022/05/17 09:34:51;;;;;;;;;7.20;5.80;;;;;22.24;60.89;100412.91;5046334;28;8849;-64
2022/05/17 09:37:20;;;;;;;;;8.60;8.40;;;;;22.28;60.69;100416.91;5048859;28;8854;-64
2022/05/17 09:39:48;;;;;;;;;7.20;5.00;;;;;22.35;60.92;100418.72;5047243;28;8834;-63
2022/05/17 09:42:16;;;;;;;;;7.60;7.00;;;;;22.40;60.77;100421.69;5043637;28;8973;-64
2022/05/17 09:44:44;;;;;;;;;5.60;5.60;;;;;22.48;60.54;100420.81;5036852;28;8979;-64
2022/05/17 09:47:12;;;;;;;;;5.00;5.00;;;;;22.54;60.17;100422.78;5029525;28;8871;-64
2022/05/17 09:52:34;;;;;;;;;6.80;6.80;;;;;22.46;60.36;100425.59;5049401;28;8916;-64
2022/05/17 09:55:02;;;;;;;;;5.00;5.00;;;;;22.45;60.42;100421.16;5049260;28;9539;-64
2022/05/17 09:57:30;;;;;;;;;6.00;5.80;;;;;22.50;60.54;100425.03;5049508;28;8834;-64
2022/05/17 09:59:58;;;;;;;;;5.00;4.80;;;;;22.55;60.28;100428.00;5030504;28;8902;-64
2022/05/17 10:02:25;;;;;;;;;0.00;0.00;;;;;22.59;60.34;100421.19;5030393;28;8832;-64
2022/05/17 10:04:54;;;;;;;;;2.00;2.00;;;;;22.67;60.27;100428.38;5030780;28;8829;-64
2022/05/17 10:07:21;;;;;;;;;2.00;2.00;;;;;22.81;59.92;100420.25;5040998;28;8830;-64
2022/05/17 10:09:49;;;;;;;;;4.40;4.00;;;;;22.97;59.38;100421.91;5030384;28;8838;-65
2022/05/17 10:12:18;;;;;;;;;5.60;5.60;;;;;23.09;59.02;100426.69;5030079;28;8825;-64
2022/05/17 10:14:46;;;;;;;;;5.00;2.40;;;;;23.06;58.83;100421.59;5028902;28;8886;-64
2022/05/17 10:17:14;;;;;;;;;4.80;4.80;;;;;23.02;59.11;100422.19;5028591;28;8841;-64
2022/05/17 10:19:43;;;;;;;;;6.00;6.00;;;;;22.94;59.39;100423.16;5032824;28;8913;-64
2022/05/17 10:22:11;;;;;;;;;4.60;3.60;;;;;22.90;59.66;100423.69;5048957;28;8858;-63
2022/05/17 10:24:39;;;;;;;;;4.00;4.00;;;;;22.90;59.63;100424.53;5047956;28;8853;-64
2022/05/17 10:27:09;;;;;;;;;4.20;2.80;;;;;22.99;59.26;100428.00;5044653;28;8987;-64
2022/05/17 10:29:37;;;;;;;;;3.80;3.80;;;;;23.55;58.02;100429.94;5036632;28;8919;-64
2022/05/17 10:32:05;;;;;;;;;2.80;2.80;;;;;24.41;56.74;100419.69;5050569;28;8993;-65
2022/05/17 10:34:53;;;;;;;;;4.60;4.60;;;;;24.86;55.46;100411.81;5049799;28;8842;-64
2022/05/17 10:37:21;;;;;;;;;2.00;2.00;;;;;24.92;55.73;100415.59;5048376;28;8892;-64
2022/05/17 10:39:49;;;;;;;;;2.00;2.00;;;;;24.82;55.67;100413.25;5040719;28;8983;-64
2022/05/17 10:42:18;;;;;;;;;1.20;1.00;;;;;24.73;56.11;100421.78;5029613;28;8990;-63
2022/05/17 10:44:47;;;;;;;;;2.80;2.80;;;;;24.84;55.53;100418.50;5033548;28;8821;-63
2022/05/17 10:47:15;;;;;;;;;2.00;2.00;;;;;24.88;55.74;100419.78;5049124;28;8988;-64
2022/05/17 10:49:43;;;;;;;;;3.00;3.00;;;;;24.85;55.56;100417.44;5037477;28;8836;-66
2022/05/17 10:52:13;;;;;;;;;3.00;3.00;;;;;24.95;55.83;100417.94;5029529;28;8983;-66
2022/05/17 10:54:41;;;;;;;;;3.80;3.80;;;;;25.05;55.22;100408.34;5041779;28;9837;-64
2022/05/17 10:57:09;;;;;;;;;3.00;2.40;;;;;25.09;55.12;100404.16;5036718;28;8899;-65
2022/05/17 10:59:39;;;;;;;;;3.40;2.80;;;;;25.05;55.21;100411.06;5034079;28;8832;-64
2022/05/17 11:02:07;;;;;;;;;3.00;2.00;;;;;24.98;55.62;100412.06;5028384;28;8822;-64
2022/05/17 11:04:35;;;;;;;;;1.00;1.00;;;;;24.79;55.65;100418.28;5028147;28;8840;-69
2022/05/17 11:07:02;;;;;;;;;2.00;2.00;;;;;24.63;56.63;100418.56;5029227;28;8998;-64
2022/05/17 11:09:32;;;;;;;;;5.00;2.00;;;;;24.51;56.15;100412.00;5017109;28;8830;-64
2022/05/17 11:12:01;;;;;;;;;2.00;2.00;;;;;24.38;56.70;100409.16;5038773;28;9737;-64
2022/05/17 11:14:29;;;;;;;;;2.20;2.20;;;;;24.31;56.84;100413.72;5028641;28;8828;-64
2022/05/17 11:16:57;;;;;;;;;3.40;3.00;;;;;24.25;56.98;100409.91;5042474;28;8842;-63
2022/05/17 11:19:26;;;;;;;;;2.20;2.00;;;;;24.19;57.39;100410.69;5028916;28;8834;-63
2022/05/17 11:21:54;;;;;;;;;3.00;2.20;;;;;24.18;57.56;100405.44;5035967;28;8850;-64
2022/05/17 11:24:22;;;;;;;;;2.40;2.40;;;;;24.19;57.47;100399.00;5047808;28;8846;-63
2022/05/17 11:26:50;;;;;;;;;2.00;2.00;;;;;24.26;57.06;100397.16;5046626;28;8834;-64
2022/05/17 11:29:18;;;;;;;;;2.80;2.80;;;;;24.36;56.72;100403.09;5044631;28;8832;-63
2022/05/17 11:31:46;;;;;;;;;2.00;2.00;;;;;24.54;56.66;100396.09;5044690;28;8849;-64
2022/05/17 11:34:14;;;;;;;;;2.00;2.00;;;;;24.77;55.52;100398.53;5043658;28;8910;-64
2022/05/17 11:36:42;;;;;;;;;1.40;1.40;;;;;25.04;55.55;100392.19;5027379;28;8854;-67
2022/05/17 11:39:12;;;;;;;;;2.20;2.20;;;;;25.16;54.72;100385.06;5043236;28;8830;-63
2022/05/17 11:41:39;;;;;;;;;5.60;4.20;;;;;25.08;55.06;100390.69;5047805;28;8977;-64
2022/05/17 11:44:07;;;;;;;;;4.20;3.80;;;;;24.94;55.33;100383.53;5048791;28;8838;-63
2022/05/17 11:46:35;;;;;;;;;3.00;3.00;;;;;24.77;55.82;100387.63;5030963;28;8836;-64